EST,Max TemperatureF,Mean TemperatureF,Min TemperatureF,Max Dew PointF,MeanDew PointF,Min DewpointF,Max Humidity, Mean Humidity, Min Humidity, Max Sea Level PressureIn, Mean Sea Level PressureIn, Min Sea Level PressureIn, Max VisibilityMiles, Mean VisibilityMiles, Min VisibilityMiles, Max Wind SpeedMPH, Mean Wind SpeedMPH, Max Gust SpeedMPH,PrecipitationIn, CloudCover, Events, WindDirDegrees
2013-1-1,45,41,37,32,28,19,73,60,36,30.04,30.00,29.93,10,10,10,9,4,,0.00,5,,18
2013-1-2,39,34,28,31,21,14,72,57,42,30.26,30.14,30.04,10,10,10,10,6,,0.00,3,,355
2013-1-3,37,32,26,23,18,14,81,58,48,30.29,30.24,30.19,10,10,10,7,3,,0.00,4,,199
2013-1-4,45,34,23,24,21,17,85,63,33,30.25,30.21,30.14,10,10,10,10,4,,0.00,0,,296
2013-1-5,43,34,25,31,25,19,81,67,43,30.41,30.31,30.20,10,10,10,12,5,,0.00,1,,235
2013-1-6,48,39,30,35,31,27,85,69,46,30.22,30.14,30.06,10,10,10,8,4,,0.00,5,,240
2013-1-7,46,38,30,30,25,23,79,55,39,30.46,30.39,30.18,10,10,10,15,8,22,0.00,4,,340
2013-1-8,50,38,27,37,30,23,85,75,52,30.45,30.42,30.38,10,10,10,14,7,,0.00,2,,248
2013-1-9,59,44,30,46,34,27,89,80,62,30.41,30.35,30.26,10,10,7,10,4,,0.00,3,,300
2013-1-10,52,43,34,36,31,28,89,63,40,30.61,30.52,30.42,10,10,10,12,4,,0.00,2,,29
2013-1-11,42,38,35,40,36,29,93,85,68,30.52,30.25,30.13,10,5,0,6,1,,0.05,6,Fog-Rain,145
2013-1-12,44,42,41,43,40,39,93,91,87,30.21,30.16,30.13,3,1,0,8,2,,0.00,8,Fog,99
2013-1-13,52,47,42,50,44,40,97,92,89,30.16,30.08,30.00,1,0,0,7,2,,0.01,8,Fog,203
2013-1-14,64,54,42,58,44,35,97,79,54,30.33,30.12,29.98,10,7,0,16,9,25,0.06,6,Fog-Rain,340
2013-1-15,42,40,37,38,36,34,93,88,79,30.36,30.27,30.18,10,6,1,13,7,,0.79,8,Rain,39
2013-1-16,42,40,37,39,36,33,93,87,81,30.17,30.06,29.91,10,8,2,13,7,,0.25,8,Rain,27
2013-1-17,44,40,37,40,35,30,93,80,58,30.16,30.09,30.02,10,9,5,10,2,,0.09,8,Rain,354
2013-1-18,39,36,34,31,20,13,79,52,34,30.53,30.41,30.12,10,10,10,14,8,24,0.00,0,,347
2013-1-19,48,41,34,34,28,23,70,59,41,30.45,30.27,30.03,10,10,10,17,11,22,0.00,0,,209
2013-1-20,62,50,37,28,21,8,53,36,18,30.10,29.96,29.85,10,10,10,20,9,25,0.00,0,,281
2013-1-21,50,40,30,31,19,11,67,46,29,30.12,29.99,29.80,10,10,10,20,7,36,0.00,2,,25
2013-1-22,30,24,19,9,-4,-10,43,30,22,30.32,30.20,29.96,10,10,10,18,13,28,0.00,1,,343
2013-1-23,28,21,14,15,2,-5,72,42,25,30.39,30.29,30.18,10,9,2,13,7,17,0.00,4,Snow,345
2013-1-24,28,22,17,18,13,0,86,70,30,30.56,30.27,30.11,10,5,1,21,10,30,0.02,6,Snow,19
2013-1-25,24,20,16,18,11,4,80,66,46,30.56,30.32,30.12,10,9,2,12,6,22,0.00,6,Snow,242
2013-1-26,37,31,25,24,20,16,75,66,50,30.47,30.27,30.12,10,10,10,10,3,16,0.00,8,,6
2013-1-27,37,34,30,24,19,14,67,56,48,30.64,30.55,30.48,10,10,10,9,7,,0.00,4,,117
2013-1-28,50,42,33,39,33,24,87,77,63,30.51,30.29,30.09,10,8,3,18,10,,0.11,6,Rain,205
2013-1-29,64,52,41,49,43,37,90,77,58,30.15,30.08,30.00,10,9,7,7,5,,0.00,3,,206
2013-1-30,66,56,45,56,50,42,96,87,70,29.98,29.63,29.26,10,7,1,26,10,34,0.36,7,Rain,189
2013-1-31,62,48,33,57,29,13,90,51,30,29.95,29.61,29.21,10,9,2,26,18,41,0.44,5,Rain,286